Time;durP1;ratioP1;P1;durP2;ratioP2;P2;SDS_P1;SDS_P2;PMS_P1;PMS_P2;Temp;Humidity;BMP_temperature;BMP_pressure;BME280_temperature;BME280_humidity;BME280_pressure;Samples;Min_cycle;Max_cycle;Signal;HPM_P1;HPM_P2
2022/06/19 00:01:37;;;;;;;;;;;26.80;76.40;;;;;;5054527;28;19920;-52
2022/06/19 00:04:21;;;;;;;;;;;26.50;77.30;;;;;;5053704;28;19996;-50
2022/06/19 00:07:05;;;;;;;;;;;26.50;76.20;;;;;;5052205;28;19982;-46
2022/06/19 00:09:49;;;;;;;;;;;26.40;77.10;;;;;;5053444;28;19916;-50
2022/06/19 00:12:34;;;;;;;;;;;26.30;78.20;;;;;;5056092;28;20177;-49
2022/06/19 00:15:18;;;;;;;;;;;26.30;78.40;;;;;;5057042;28;20014;-54
2022/06/19 00:18:02;;;;;;;;;;;26.30;78.60;;;;;;5055911;28;20006;-50
2022/06/19 00:20:46;;;;;;;;;;;26.30;78.40;;;;;;5053536;28;19967;-47
2022/06/19 00:23:31;;;;;;;;;;;26.10;77.80;;;;;;5052667;28;20438;-45
2022/06/19 00:26:15;;;;;;;;;;;26.00;77.50;;;;;;5048912;28;19911;-51
2022/06/19 00:29:00;;;;;;;;;;;25.90;77.90;;;;;;5054139;28;20398;-50
2022/06/19 00:31:44;;;;;;;;;;;26.00;78.10;;;;;;5053910;28;20013;-49
2022/06/19 00:34:28;;;;;;;;;;;26.00;78.70;;;;;;5054137;28;19955;-47
2022/06/19 00:37:12;;;;;;;;;;;26.10;79.90;;;;;;5053763;28;19983;-47
2022/06/19 00:39:56;;;;;;;;;;;26.20;80.00;;;;;;5054234;28;19915;-46
2022/06/19 00:42:41;;;;;;;;;;;26.30;79.70;;;;;;5053412;28;19920;-50
2022/06/19 00:45:30;;;;;;;;;;;26.30;79.10;;;;;;5053205;28;19916;-45
2022/06/19 00:48:24;;;;;;;;;;;26.40;78.60;;;;;;5054121;28;19920;-47
2022/06/19 00:51:10;;;;;;;;;;;26.50;78.50;;;;;;5053534;28;19911;-48
2022/06/19 00:53:54;;;;;;;;;;;26.40;78.20;;;;;;5053219;28;19919;-52
2022/06/19 00:56:38;;;;;;;;;;;26.40;78.40;;;;;;5051910;28;20284;-52
2022/06/19 00:59:23;;;;;;;;;;;26.40;78.80;;;;;;5052580;28;20387;-50
2022/06/19 01:02:07;;;;;;;;;;;26.30;79.30;;;;;;5057957;28;19930;-47
2022/06/19 01:04:53;;;;;;;;;;;26.30;79.60;;;;;;5074264;28;19911;-52
2022/06/19 01:07:39;;;;;;;;;;;26.30;79.70;;;;;;5054840;28;19920;-48
2022/06/19 01:10:23;;;;;;;;;;;26.30;79.50;;;;;;5053668;28;20387;-47
2022/06/19 01:13:07;;;;;;;;;;;26.20;78.90;;;;;;5042731;28;19924;-49
2022/06/19 01:15:52;;;;;;;;;;;26.10;78.30;;;;;;5049177;28;19919;-47
2022/06/19 01:18:38;;;;;;;;;;;26.00;78.90;;;;;;5051358;28;19915;-47
2022/06/19 01:21:30;;;;;;;;;;;25.80;79.70;;;;;;5051863;28;19927;-51
2022/06/19 01:24:14;;;;;;;;;;;25.80;80.30;;;;;;5033471;28;19958;-47
2022/06/19 01:27:00;;;;;;;;;;;25.70;80.10;;;;;;5049031;28;20375;-51
2022/06/19 01:29:45;;;;;;;;;;;25.70;80.00;;;;;;5055612;28;19950;-52
2022/06/19 01:32:30;;;;;;;;;;;25.70;80.10;;;;;;5056247;28;19916;-51
2022/06/19 01:35:15;;;;;;;;;;;25.70;80.40;;;;;;5055784;28;19927;-51
2022/06/19 01:38:01;;;;;;;;;;;25.70;80.60;;;;;;5054310;28;19944;-48
2022/06/19 01:40:47;;;;;;;;;;;25.70;80.70;;;;;;5052592;28;19959;-44
2022/06/19 01:43:32;;;;;;;;;;;25.70;81.00;;;;;;5051644;28;19912;-53
2022/06/19 01:46:16;;;;;;;;;;;25.50;81.20;;;;;;5051266;28;19919;-53
2022/06/19 01:49:01;;;;;;;;;;;25.20;82.10;;;;;;5051861;28;19958;-50
2022/06/19 01:51:45;;;;;;;;;;;25.00;82.60;;;;;;5051217;28;19919;-52
2022/06/19 01:54:34;;;;;;;;;;;24.80;84.10;;;;;;5053158;28;20375;-48
2022/06/19 01:57:19;;;;;;;;;;;24.90;84.20;;;;;;5052059;28;20324;-53
2022/06/19 02:00:04;;;;;;;;;;;25.00;84.00;;;;;;5051954;28;20046;-47
2022/06/19 02:02:53;;;;;;;;;;;25.20;83.90;;;;;;5054464;28;19950;-49
2022/06/19 02:05:39;;;;;;;;;;;25.20;83.70;;;;;;5055784;28;20280;-45
2022/06/19 02:08:24;;;;;;;;;;;25.20;83.70;;;;;;5055354;28;19920;-48
2022/06/19 02:11:11;;;;;;;;;;;25.20;83.90;;;;;;5056300;28;20047;-47
2022/06/19 02:13:57;;;;;;;;;;;25.10;84.60;;;;;;5056419;28;19911;-52
2022/06/19 02:16:42;;;;;;;;;;;24.80;86.20;;;;;;5055655;28;19919;-49
2022/06/19 02:19:27;;;;;;;;;;;24.70;86.80;;;;;;5056600;28;19931;-50
2022/06/19 02:22:13;;;;;;;;;;;24.60;87.00;;;;;;5057362;28;19923;-54
2022/06/19 02:24:57;;;;;;;;;;;24.60;87.30;;;;;;5055085;28;20046;-54
2022/06/19 02:27:41;;;;;;;;;;;24.60;87.40;;;;;;5051764;28;20300;-51
2022/06/19 02:30:25;;;;;;;;;;;24.60;87.40;;;;;;5048527;28;19916;-54
2022/06/19 02:33:12;;;;;;;;;;;24.70;87.40;;;;;;5056540;28;19939;-49
2022/06/19 02:35:57;;;;;;;;;;;24.80;87.40;;;;;;5055222;28;19980;-46
2022/06/19 02:38:41;;;;;;;;;;;24.90;87.30;;;;;;5055879;28;19996;-47
2022/06/19 02:41:28;;;;;;;;;;;24.90;87.40;;;;;;5055377;28;19919;-49
2022/06/19 02:44:13;;;;;;;;;;;24.80;87.30;;;;;;5056139;28;19916;-49
2022/06/19 02:46:57;;;;;;;;;;;24.80;87.40;;;;;;5054672;28;20288;-46
2022/06/19 02:49:41;;;;;;;;;;;24.70;88.00;;;;;;5055302;28;20003;-46
2022/06/19 02:52:25;;;;;;;;;;;24.60;88.50;;;;;;5055978;28;19933;-50
2022/06/19 02:55:10;;;;;;;;;;;24.50;88.80;;;;;;5055679;28;19912;-49
2022/06/19 02:57:54;;;;;;;;;;;24.40;89.10;;;;;;5055107;28;19920;-47
2022/06/19 03:00:39;;;;;;;;;;;24.30;87.60;;;;;;5055371;28;19966;-52
2022/06/19 03:03:28;;;;;;;;;;;24.30;86.10;;;;;;5055827;28;19935;-51
2022/06/19 03:06:12;;;;;;;;;;;24.30;85.80;;;;;;5055480;28;20323;-46
2022/06/19 03:08:56;;;;;;;;;;;24.30;84.10;;;;;;5054297;28;19947;-45
2022/06/19 03:11:41;;;;;;;;;;;24.40;82.60;;;;;;5040684;28;19978;-51
2022/06/19 03:14:25;;;;;;;;;;;24.50;82.20;;;;;;5055265;28;19912;-49
2022/06/19 03:17:28;;;;;;;;;;;24.50;81.50;;;;;;5054508;28;20212;-49
2022/06/19 03:20:16;;;;;;;;;;;24.50;80.90;;;;;;5054195;28;19970;-50
2022/06/19 03:23:00;;;;;;;;;;;24.40;81.90;;;;;;5055299;28;19963;-51
2022/06/19 03:25:44;;;;;;;;;;;24.40;83.50;;;;;;5054541;28;19974;-55
2022/06/19 03:28:29;;;;;;;;;;;24.50;84.30;;;;;;5056807;28;20049;-53
2022/06/19 03:31:15;;;;;;;;;;;24.50;85.50;;;;;;5057041;28;19920;-49
2022/06/19 03:33:59;;;;;;;;;;;24.60;86.30;;;;;;5054061;28;19974;-51
2022/06/19 03:36:43;;;;;;;;;;;24.50;86.60;;;;;;5054349;28;19916;-45
2022/06/19 03:39:27;;;;;;;;;;;24.50;86.20;;;;;;5053247;28;19915;-50
2022/06/19 03:42:13;;;;;;;;;;;24.40;86.30;;;;;;5053856;28;19923;-46
2022/06/19 03:44:58;;;;;;;;;;;24.30;85.90;;;;;;5042176;28;19924;-46
2022/06/19 03:47:42;;;;;;;;;;;24.30;84.70;;;;;;5053242;28;20000;-46
2022/06/19 03:50:26;;;;;;;;;;;24.40;82.70;;;;;;5054268;28;19919;-46
2022/06/19 03:53:10;;;;;;;;;;;24.50;81.30;;;;;;5054146;28;19916;-50
2022/06/19 03:55:54;;;;;;;;;;;24.50;83.20;;;;;;5053906;28;19927;-50
2022/06/19 03:58:48;;;;;;;;;;;24.50;84.60;;;;;;5054229;28;19940;-50
2022/06/19 04:01:33;;;;;;;;;;;24.40;84.40;;;;;;5054219;28;19936;-49
2022/06/19 04:04:18;;;;;;;;;;;24.30;86.30;;;;;;5053954;28;20414;-52
2022/06/19 04:07:02;;;;;;;;;;;24.20;86.40;;;;;;5054019;28;19971;-47
2022/06/19 04:09:46;;;;;;;;;;;24.20;86.40;;;;;;5054282;28;19955;-47
2022/06/19 04:12:30;;;;;;;;;;;24.20;86.20;;;;;;5054701;28;19927;-51
2022/06/19 04:15:14;;;;;;;;;;;24.30;86.00;;;;;;5054054;28;19939;-52
2022/06/19 04:17:58;;;;;;;;;;;24.50;85.70;;;;;;5053974;28;19915;-50
2022/06/19 04:20:43;;;;;;;;;;;24.60;85.40;;;;;;5053545;28;19919;-46
2022/06/19 04:23:27;;;;;;;;;;;24.60;84.70;;;;;;5053875;28;20371;-51
2022/06/19 04:26:14;;;;;;;;;;;24.70;83.90;;;;;;5045563;28;19935;-52
2022/06/19 04:28:58;;;;;;;;;;;24.70;84.50;;;;;;5053547;28;20311;-54
2022/06/19 04:31:42;;;;;;;;;;;24.70;84.80;;;;;;5053330;28;20008;-51
2022/06/19 04:34:27;;;;;;;;;;;24.80;84.70;;;;;;5053812;28;20049;-51
2022/06/19 04:37:11;;;;;;;;;;;24.80;83.90;;;;;;5053416;28;20004;-51
2022/06/19 04:39:55;;;;;;;;;;;24.90;83.30;;;;;;5034091;28;19923;-49
2022/06/19 04:42:39;;;;;;;;;;;25.00;80.30;;;;;;5037010;28;19924;-49
2022/06/19 04:45:24;;;;;;;;;;;25.10;78.10;;;;;;5053418;28;19951;-51
2022/06/19 04:48:09;;;;;;;;;;;25.10;76.60;;;;;;5052712;28;19981;-51
2022/06/19 04:50:53;;;;;;;;;;;25.10;75.40;;;;;;5052827;28;19959;-51
2022/06/19 04:53:38;;;;;;;;;;;25.10;75.30;;;;;;5052077;28;19923;-53
2022/06/19 04:56:23;;;;;;;;;;;25.10;74.90;;;;;;5051706;28;19911;-55
2022/06/19 04:59:07;;;;;;;;;;;25.00;74.70;;;;;;5053573;28;19954;-53
2022/06/19 05:01:51;;;;;;;;;;;25.10;74.90;;;;;;5051707;28;19924;-48
2022/06/19 05:04:36;;;;;;;;;;;25.10;74.60;;;;;;5037085;28;19974;-51
2022/06/19 05:07:20;;;;;;;;;;;25.20;74.60;;;;;;5052450;28;19958;-48
2022/06/19 05:10:04;;;;;;;;;;;25.20;74.40;;;;;;5053337;28;20106;-49
2022/06/19 05:12:53;;;;;;;;;;;25.40;74.30;;;;;;5034379;28;19916;-51
2022/06/19 05:15:38;;;;;;;;;;;25.40;74.20;;;;;;5049447;28;19975;-54
2022/06/19 05:18:22;;;;;;;;;;;25.30;74.10;;;;;;5052220;28;20327;-52
2022/06/19 05:21:06;;;;;;;;;;;25.30;74.20;;;;;;5052165;28;20015;-53
2022/06/19 05:23:51;;;;;;;;;;;25.40;74.00;;;;;;5053025;28;19945;-53
2022/06/19 05:26:38;;;;;;;;;;;25.40;73.70;;;;;;5052625;28;20341;-55
2022/06/19 05:29:23;;;;;;;;;;;25.50;73.50;;;;;;5054338;28;19915;-50
2022/06/19 05:32:07;;;;;;;;;;;25.60;73.30;;;;;;5051803;28;19927;-50
2022/06/19 05:34:51;;;;;;;;;;;25.60;73.10;;;;;;5053151;28;19915;-47
2022/06/19 05:37:36;;;;;;;;;;;25.60;72.90;;;;;;5055527;28;19916;-53
2022/06/19 05:40:20;;;;;;;;;;;25.70;72.70;;;;;;5056335;28;19939;-55
2022/06/19 05:43:05;;;;;;;;;;;25.80;72.60;;;;;;5057411;28;19920;-52
2022/06/19 05:45:50;;;;;;;;;;;25.90;72.40;;;;;;5056168;28;19936;-57
2022/06/19 05:48:36;;;;;;;;;;;26.00;72.40;;;;;;5042354;28;20360;-51
2022/06/19 05:51:21;;;;;;;;;;;26.00;72.40;;;;;;5056989;28;19931;-52
2022/06/19 05:54:06;;;;;;;;;;;26.10;72.20;;;;;;5057223;28;20422;-52
2022/06/19 05:56:50;;;;;;;;;;;26.20;71.80;;;;;;5056225;28;20279;-54
2022/06/19 05:59:34;;;;;;;;;;;26.30;71.60;;;;;;5056579;28;19971;-48
2022/06/19 06:02:21;;;;;;;;;;;26.40;71.50;;;;;;5055648;28;19958;-45
2022/06/19 06:05:05;;;;;;;;;;;26.60;71.60;;;;;;5056175;28;19919;-49
2022/06/19 06:07:49;;;;;;;;;;;26.50;71.50;;;;;;5056184;28;19970;-51
2022/06/19 06:10:34;;;;;;;;;;;26.60;71.60;;;;;;5057028;28;20287;-51
2022/06/19 06:13:18;;;;;;;;;;;26.60;71.30;;;;;;5057199;28;19919;-51
2022/06/19 06:16:10;;;;;;;;;;;26.70;71.30;;;;;;5053734;28;20019;-51
2022/06/19 06:18:55;;;;;;;;;;;26.80;71.20;;;;;;5056919;28;20428;-47
2022/06/19 06:21:39;;;;;;;;;;;26.90;71.00;;;;;;5055606;28;19924;-52
2022/06/19 06:24:23;;;;;;;;;;;27.00;70.70;;;;;;5055677;28;19924;-56
2022/06/19 06:27:08;;;;;;;;;;;27.00;70.80;;;;;;5056420;28;20363;-48
2022/06/19 06:29:52;;;;;;;;;;;27.00;70.60;;;;;;5055907;28;20422;-52
2022/06/19 06:32:36;;;;;;;;;;;27.00;70.50;;;;;;5055309;28;19935;-51
2022/06/19 06:35:20;;;;;;;;;;;27.10;70.20;;;;;;5056449;28;19919;-50
2022/06/19 06:38:04;;;;;;;;;;;27.10;69.60;;;;;;5056115;28;19931;-52
2022/06/19 06:40:49;;;;;;;;;;;27.30;69.60;;;;;;5035751;28;19924;-52
2022/06/19 06:43:37;;;;;;;;;;;27.20;69.60;;;;;;5046392;28;20715;-50
2022/06/19 06:46:24;;;;;;;;;;;27.30;69.60;;;;;;5054251;28;19912;-52
2022/06/19 06:49:09;;;;;;;;;;;27.30;69.60;;;;;;5054314;28;20210;-49
2022/06/19 06:51:53;;;;;;;;;;;27.40;69.30;;;;;;5055661;28;19916;-55
2022/06/19 06:54:38;;;;;;;;;;;27.40;68.50;;;;;;5054862;28;19919;-58
2022/06/19 06:57:23;;;;;;;;;;;27.40;68.70;;;;;;5054074;28;19931;-51
2022/06/19 07:00:08;;;;;;;;;;;27.50;68.20;;;;;;5047384;28;20272;-54
2022/06/19 07:02:52;;;;;;;;;;;27.60;68.70;;;;;;5048612;28;19915;-53
2022/06/19 07:05:36;;;;;;;;;;;27.70;68.70;;;;;;5052436;28;20447;-52
2022/06/19 07:08:20;;;;;;;;;;;27.80;68.20;;;;;;5047060;28;19927;-53
2022/06/19 07:11:04;;;;;;;;;;;28.10;67.80;;;;;;5054637;28;19978;-51
2022/06/19 07:13:49;;;;;;;;;;;28.20;67.50;;;;;;5055602;28;19916;-52
2022/06/19 07:16:33;;;;;;;;;;;28.20;66.70;;;;;;5045266;28;19919;-48
2022/06/19 07:19:17;;;;;;;;;;;28.30;66.20;;;;;;5054398;28;20383;-51
2022/06/19 07:22:02;;;;;;;;;;;28.30;65.70;;;;;;5060342;28;19993;-47
2022/06/19 07:24:49;;;;;;;;;;;28.50;65.20;;;;;;5057457;28;19927;-49
2022/06/19 07:27:33;;;;;;;;;;;28.60;63.70;;;;;;5054881;28;20323;-54
2022/06/19 07:30:20;;;;;;;;;;;28.80;62.70;;;;;;5054139;28;20307;-51
2022/06/19 07:33:04;;;;;;;;;;;29.00;62.20;;;;;;5053286;28;20010;-51
2022/06/19 07:35:48;;;;;;;;;;;29.10;61.60;;;;;;5052880;28;19987;-51
2022/06/19 07:38:33;;;;;;;;;;;29.10;61.20;;;;;;5051246;28;19916;-52
2022/06/19 07:41:17;;;;;;;;;;;29.20;60.90;;;;;;5053410;28;19953;-49
2022/06/19 07:44:01;;;;;;;;;;;29.20;60.90;;;;;;5052106;28;19912;-49
2022/06/19 07:52:52;;;;;;;;;;;29.60;60.50;;;;;;5050816;28;19915;-57
2022/06/19 07:55:39;;;;;;;;;;;29.80;60.60;;;;;;5044058;28;19916;-54
2022/06/19 07:58:23;;;;;;;;;;;30.00;60.90;;;;;;5050972;28;19919;-60
2022/06/19 08:01:08;;;;;;;;;;;30.00;60.30;;;;;;5051307;28;19931;-58
2022/06/19 08:03:52;;;;;;;;;;;30.00;60.20;;;;;;5053665;28;20530;-56
2022/06/19 08:06:36;;;;;;;;;;;30.00;60.30;;;;;;5048785;28;19919;-56
2022/06/19 08:09:20;;;;;;;;;;;30.10;59.80;;;;;;5043416;28;19974;-55
2022/06/19 08:12:04;;;;;;;;;;;30.40;59.20;;;;;;5044127;28;19962;-51
2022/06/19 08:14:49;;;;;;;;;;;30.50;58.50;;;;;;5045418;28;19939;-55
2022/06/19 08:17:34;;;;;;;;;;;30.60;57.30;;;;;;5047042;28;20434;-52
2022/06/19 08:20:19;;;;;;;;;;;30.60;56.80;;;;;;5043805;28;19971;-52
2022/06/19 08:23:05;;;;;;;;;;;30.60;56.10;;;;;;5050256;28;19931;-52
2022/06/19 08:25:50;;;;;;;;;;;30.70;55.70;;;;;;5050478;28;19920;-55
2022/06/19 08:28:39;;;;;;;;;;;30.90;55.60;;;;;;5049839;28;19928;-51
2022/06/19 08:31:23;;;;;;;;;;;30.90;55.70;;;;;;5050905;28;19966;-57
2022/06/19 08:34:07;;;;;;;;;;;31.00;55.60;;;;;;5039399;28;19912;-56
2022/06/19 08:36:52;;;;;;;;;;;31.00;55.20;;;;;;5045564;28;20288;-57
2022/06/19 08:39:36;;;;;;;;;;;31.10;55.30;;;;;;5050863;28;19947;-53
2022/06/19 08:42:26;;;;;;;;;;;31.10;54.40;;;;;;5051922;28;19979;-51
2022/06/19 08:45:21;;;;;;;;;;;31.10;54.10;;;;;;5052099;28;19954;-53
2022/06/19 08:48:08;;;;;;;;;;;31.30;54.10;;;;;;5054153;28;19912;-53
2022/06/19 08:51:00;;;;;;;;;;;31.40;53.60;;;;;;5053612;28;19955;-55
2022/06/19 08:54:05;;;;;;;;;;;31.50;53.50;;;;;;5042489;28;19959;-50
2022/06/19 08:57:18;;;;;;;;;;;31.60;53.20;;;;;;5033330;28;20367;-54
2022/06/19 09:00:29;;;;;;;;;;;31.70;53.70;;;;;;5033587;28;20280;-47
2022/06/19 09:03:26;;;;;;;;;;;31.70;53.30;;;;;;5033262;28;19921;-53
2022/06/19 09:06:13;;;;;;;;;;;31.90;52.80;;;;;;5041392;28;19931;-53
2022/06/19 09:09:05;;;;;;;;;;;31.90;52.40;;;;;;5053040;28;19912;-49
2022/06/19 09:11:49;;;;;;;;;;;32.10;52.30;;;;;;5052072;28;19916;-48
2022/06/19 09:14:36;;;;;;;;;;;32.10;52.20;;;;;;5052575;28;20004;-51
2022/06/19 09:17:28;;;;;;;;;;;32.00;52.00;;;;;;5052677;28;19919;-49
2022/06/19 09:20:21;;;;;;;;;;;32.20;52.10;;;;;;5052995;28;20288;-53
2022/06/19 09:23:25;;;;;;;;;;;32.40;52.30;;;;;;5053781;28;19920;-53
2022/06/19 09:26:17;;;;;;;;;;;32.40;52.50;;;;;;5052261;28;19916;-52
2022/06/19 09:29:05;;;;;;;;;;;32.40;52.00;;;;;;5052968;28;19916;-56
2022/06/19 09:32:13;;;;;;;;;;;32.60;51.90;;;;;;5032767;28;19960;-51
2022/06/19 09:35:04;;;;;;;;;;;32.70;51.60;;;;;;5046460;28;19916;-54
2022/06/19 09:37:55;;;;;;;;;;;32.90;51.80;;;;;;5051991;28;19962;-50
2022/06/19 09:40:42;;;;;;;;;;;32.80;51.70;;;;;;5052047;28;20334;-53
2022/06/19 09:43:41;;;;;;;;;;;32.80;51.70;;;;;;5052438;28;20287;-47
2022/06/19 09:46:31;;;;;;;;;;;32.90;51.50;;;;;;5051928;28;20267;-53
2022/06/19 09:49:48;;;;;;;;;;;33.00;51.60;;;;;;5051344;28;19911;-53
2022/06/19 09:52:37;;;;;;;;;;;33.00;51.20;;;;;;5034322;28;19963;-53
2022/06/19 09:55:31;;;;;;;;;;;33.20;51.30;;;;;;5052092;28;19912;-48
2022/06/19 09:58:21;;;;;;;;;;;33.40;51.20;;;;;;5052060;28;20350;-50
2022/06/19 10:01:05;;;;;;;;;;;33.30;50.90;;;;;;5051960;28;19931;-54
2022/06/19 10:03:59;;;;;;;;;;;33.40;51.40;;;;;;5051707;28;20351;-51
2022/06/19 10:06:50;;;;;;;;;;;33.50;50.80;;;;;;5051905;28;19911;-52
2022/06/19 10:10:04;;;;;;;;;;;33.60;50.20;;;;;;5052083;28;19916;-51
2022/06/19 10:12:50;;;;;;;;;;;33.70;50.40;;;;;;5049992;28;19958;-48
2022/06/19 10:15:36;;;;;;;;;;;33.70;50.50;;;;;;5052210;28;20437;-49
2022/06/19 10:18:23;;;;;;;;;;;33.80;50.70;;;;;;5052277;28;20470;-52
2022/06/19 10:24:25;;;;;;;;;;;33.90;51.00;;;;;;5043252;28;19911;-54
2022/06/19 10:27:19;;;;;;;;;;;33.90;51.00;;;;;;5054733;28;19911;-51
2022/06/19 10:30:09;;;;;;;;;;;34.00;50.60;;;;;;5037466;28;20314;-50
2022/06/19 10:32:53;;;;;;;;;;;34.10;51.20;;;;;;5038873;28;19912;-54
2022/06/19 10:35:41;;;;;;;;;;;34.20;51.30;;;;;;5055090;28;19915;-52
2022/06/19 10:38:26;;;;;;;;;;;34.10;50.90;;;;;;5055834;28;19911;-52
2022/06/19 10:44:40;;;;;;;;;;;34.00;51.90;;;;;;5055473;28;20383;-51
2022/06/19 10:47:25;;;;;;;;;;;34.20;52.20;;;;;;5035932;28;20347;-53
2022/06/19 10:50:18;;;;;;;;;;;34.30;52.00;;;;;;5038669;28;19999;-53
2022/06/19 10:53:21;;;;;;;;;;;34.30;52.40;;;;;;5054532;28;19912;-59
2022/06/19 10:56:21;;;;;;;;;;;34.40;52.40;;;;;;5048808;28;19930;-50
2022/06/19 10:59:06;;;;;;;;;;;34.70;52.40;;;;;;5055282;28;20308;-50
2022/06/19 11:05:00;;;;;;;;;;;34.50;52.10;;;;;;5054945;28;19947;-52
2022/06/19 11:07:45;;;;;;;;;;;34.60;52.20;;;;;;5054998;28;19950;-49
2022/06/19 11:10:34;;;;;;;;;;;34.50;52.50;;;;;;5048619;28;20430;-52
2022/06/19 11:13:19;;;;;;;;;;;34.60;52.60;;;;;;5048890;28;20418;-51
2022/06/19 11:16:04;;;;;;;;;;;34.40;52.30;;;;;;5054729;28;19955;-54
2022/06/19 11:18:50;;;;;;;;;;;34.60;52.40;;;;;;5055434;28;20264;-50
2022/06/19 11:21:34;;;;;;;;;;;34.60;51.60;;;;;;5054747;28;19920;-52
2022/06/19 11:24:26;;;;;;;;;;;34.60;51.90;;;;;;5054198;28;19961;-52
2022/06/19 11:27:16;;;;;;;;;;;34.70;52.30;;;;;;5054658;28;19916;-49
2022/06/19 11:30:01;;;;;;;;;;;34.60;51.50;;;;;;5055531;28;19951;-50
2022/06/19 11:32:49;;;;;;;;;;;34.70;51.90;;;;;;5054687;28;19963;-51
2022/06/19 11:35:45;;;;;;;;;;;34.70;52.40;;;;;;5053778;28;19959;-48
2022/06/19 11:38:33;;;;;;;;;;;34.90;52.90;;;;;;5055479;28;20386;-47
2022/06/19 11:41:20;;;;;;;;;;;35.00;52.80;;;;;;5054908;28;19915;-49
2022/06/19 11:44:08;;;;;;;;;;;35.00;52.80;;;;;;5055363;28;19962;-52
2022/06/19 11:46:53;;;;;;;;;;;34.40;53.50;;;;;;5054944;28;20284;-49
2022/06/19 11:49:39;;;;;;;;;;;34.40;53.90;;;;;;5055112;28;19911;-50
2022/06/19 11:52:30;;;;;;;;;;;34.30;53.70;;;;;;5055244;28;19935;-47
2022/06/19 11:55:27;;;;;;;;;;;34.40;53.80;;;;;;5054682;28;20288;-48
2022/06/19 11:58:33;;;;;;;;;;;34.50;54.20;;;;;;5054661;28;20378;-49
2022/06/19 12:01:18;;;;;;;;;;;34.50;54.20;;;;;;5054490;28;19967;-53
2022/06/19 12:04:03;;;;;;;;;;;34.50;54.40;;;;;;5053428;28;20327;-49
2022/06/19 12:06:50;;;;;;;;;;;34.60;54.60;;;;;;5053323;28;20326;-54
2022/06/19 12:09:37;;;;;;;;;;;34.50;55.00;;;;;;5039955;28;20277;-46
2022/06/19 12:12:21;;;;;;;;;;;34.40;54.90;;;;;;5055155;28;19983;-53
2022/06/19 12:15:12;;;;;;;;;;;34.50;57.60;;;;;;5055976;28;20415;-54
2022/06/19 12:17:57;;;;;;;;;;;34.40;58.70;;;;;;5047850;28;19916;-51
2022/06/19 12:20:42;;;;;;;;;;;34.00;59.50;;;;;;5054710;28;19920;-46
2022/06/19 12:23:28;;;;;;;;;;;33.90;60.10;;;;;;5054743;28;19955;-50
2022/06/19 12:26:16;;;;;;;;;;;34.00;59.40;;;;;;5053797;28;19955;-49
2022/06/19 12:29:15;;;;;;;;;;;33.80;60.00;;;;;;5054117;28;20427;-54
2022/06/19 12:32:02;;;;;;;;;;;33.60;60.40;;;;;;5034923;28;19931;-49
2022/06/19 12:34:48;;;;;;;;;;;33.40;61.10;;;;;;5039389;28;19951;-57
2022/06/19 12:37:33;;;;;;;;;;;33.40;61.30;;;;;;5054064;28;20418;-51
2022/06/19 12:40:18;;;;;;;;;;;33.50;61.50;;;;;;5053728;28;19912;-48
2022/06/19 12:43:15;;;;;;;;;;;33.10;61.60;;;;;;5054674;28;19914;-50
2022/06/19 12:46:00;;;;;;;;;;;33.00;61.90;;;;;;5052376;28;19919;-50
2022/06/19 12:48:51;;;;;;;;;;;32.60;62.10;;;;;;5053685;28;19915;-55
2022/06/19 12:51:44;;;;;;;;;;;32.50;62.20;;;;;;5053586;28;19916;-52
2022/06/19 12:54:28;;;;;;;;;;;32.50;62.30;;;;;;5053131;28;19911;-50
2022/06/19 12:57:21;;;;;;;;;;;32.50;62.30;;;;;;5052993;28;20292;-49
2022/06/19 13:00:06;;;;;;;;;;;32.20;62.40;;;;;;5053281;28;19967;-47
2022/06/19 13:03:03;;;;;;;;;;;32.10;62.40;;;;;;5052177;28;19911;-50
2022/06/19 13:05:56;;;;;;;;;;;32.00;62.20;;;;;;5048867;28;20418;-46
2022/06/19 13:09:04;;;;;;;;;;;31.90;62.50;;;;;;5052240;28;20276;-47
2022/06/19 13:11:54;;;;;;;;;;;31.90;62.20;;;;;;5033565;28;19919;-56
2022/06/19 13:14:51;;;;;;;;;;;31.90;62.30;;;;;;5038586;28;19935;-53
2022/06/19 13:18:01;;;;;;;;;;;31.60;62.30;;;;;;5052548;28;19912;-46
2022/06/19 13:21:07;;;;;;;;;;;31.80;62.30;;;;;;5041176;28;19920;-49
2022/06/19 13:23:55;;;;;;;;;;;31.70;61.80;;;;;;5052983;28;19951;-50
2022/06/19 13:27:14;;;;;;;;;;;31.70;61.90;;;;;;5052525;28;20367;-48
2022/06/19 13:30:17;;;;;;;;;;;31.50;62.10;;;;;;5053501;28;19915;-52
2022/06/19 13:33:24;;;;;;;;;;;31.50;62.00;;;;;;5053094;28;19916;-48
2022/06/19 13:36:31;;;;;;;;;;;31.70;62.50;;;;;;5053220;28;19998;-47
2022/06/19 13:39:22;;;;;;;;;;;32.00;62.00;;;;;;5052631;28;19998;-48
2022/06/19 13:42:13;;;;;;;;;;;31.70;62.00;;;;;;5052871;28;19916;-47
2022/06/19 13:45:00;;;;;;;;;;;31.50;62.50;;;;;;5051359;28;19996;-49
2022/06/19 13:47:50;;;;;;;;;;;31.50;62.20;;;;;;5031688;28;20142;-51
2022/06/19 13:50:37;;;;;;;;;;;31.50;62.10;;;;;;5030176;28;19916;-49
2022/06/19 13:53:22;;;;;;;;;;;31.70;62.20;;;;;;5036172;28;19915;-49
2022/06/19 13:56:10;;;;;;;;;;;31.70;61.70;;;;;;5051628;28;19912;-49
2022/06/19 13:59:07;;;;;;;;;;;31.60;61.60;;;;;;5055685;28;19954;-51
2022/06/19 14:02:16;;;;;;;;;;;31.60;61.70;;;;;;5056172;28;20060;-47
2022/06/19 14:05:00;;;;;;;;;;;31.60;61.70;;;;;;5055516;28;19962;-49
2022/06/19 14:07:53;;;;;;;;;;;31.60;61.20;;;;;;5056096;28;19916;-51
2022/06/19 14:10:49;;;;;;;;;;;31.70;61.30;;;;;;5056361;28;19928;-52
2022/06/19 14:13:36;;;;;;;;;;;31.90;61.00;;;;;;5035693;28;20380;-50
2022/06/19 14:16:33;;;;;;;;;;;32.00;60.60;;;;;;5038031;28;19912;-50
2022/06/19 14:19:26;;;;;;;;;;;32.20;60.40;;;;;;5056239;28;20471;-52
2022/06/19 14:22:23;;;;;;;;;;;32.00;60.30;;;;;;5055590;28;19919;-53
2022/06/19 14:25:13;;;;;;;;;;;31.90;60.70;;;;;;5054951;28;19939;-49
2022/06/19 14:27:57;;;;;;;;;;;32.20;60.00;;;;;;5055154;28;19990;-47
2022/06/19 14:30:47;;;;;;;;;;;32.20;59.90;;;;;;5055917;28;19966;-47
2022/06/19 14:33:40;;;;;;;;;;;32.30;60.20;;;;;;5056228;28;19951;-46
2022/06/19 14:36:27;;;;;;;;;;;32.60;60.40;;;;;;5055569;28;19919;-51
2022/06/19 14:39:24;;;;;;;;;;;32.70;59.70;;;;;;5055834;28;19915;-51
2022/06/19 14:42:08;;;;;;;;;;;32.90;59.70;;;;;;5052569;28;19958;-50
2022/06/19 14:45:03;;;;;;;;;;;33.00;59.40;;;;;;5055345;28;19919;-54
2022/06/19 14:48:06;;;;;;;;;;;33.30;59.00;;;;;;5054794;28;19931;-49
2022/06/19 14:51:02;;;;;;;;;;;33.40;58.60;;;;;;5043586;28;19958;-50
2022/06/19 14:53:49;;;;;;;;;;;33.40;58.80;;;;;;5056335;28;19939;-48
2022/06/19 14:56:43;;;;;;;;;;;33.50;58.90;;;;;;5055764;28;19954;-52
2022/06/19 14:59:30;;;;;;;;;;;33.80;58.30;;;;;;5055992;28;19911;-52
2022/06/19 15:02:16;;;;;;;;;;;33.80;58.00;;;;;;5055538;28;19923;-47
2022/06/19 15:05:05;;;;;;;;;;;33.50;58.30;;;;;;5056396;28;20387;-54
2022/06/19 15:07:54;;;;;;;;;;;33.20;58.60;;;;;;5056154;28;19915;-47
2022/06/19 15:10:38;;;;;;;;;;;33.20;58.70;;;;;;5055583;28;19951;-50
2022/06/19 15:13:32;;;;;;;;;;;33.40;58.70;;;;;;5036945;28;19971;-49
2022/06/19 15:16:45;;;;;;;;;;;33.40;58.10;;;;;;5055369;28;19966;-52
2022/06/19 15:19:40;;;;;;;;;;;33.50;58.40;;;;;;5052547;28;19919;-51
2022/06/19 15:22:25;;;;;;;;;;;33.30;58.50;;;;;;5053292;28;20386;-53
2022/06/19 15:25:20;;;;;;;;;;;33.00;58.90;;;;;;5054727;28;19967;-47
2022/06/19 15:28:10;;;;;;;;;;;32.70;59.20;;;;;;5055869;28;19966;-49
2022/06/19 15:30:54;;;;;;;;;;;32.70;59.60;;;;;;5055015;28;19939;-49
2022/06/19 15:33:46;;;;;;;;;;;32.60;59.70;;;;;;5054962;28;20004;-48
2022/06/19 15:36:35;;;;;;;;;;;32.80;59.90;;;;;;5053932;28;19958;-51
2022/06/19 15:39:30;;;;;;;;;;;32.50;60.10;;;;;;5054469;28;20070;-49
2022/06/19 15:42:24;;;;;;;;;;;32.00;60.50;;;;;;5053742;28;19970;-57
2022/06/19 15:45:16;;;;;;;;;;;31.40;61.50;;;;;;5046172;28;19920;-46
2022/06/19 15:48:00;;;;;;;;;;;31.00;62.10;;;;;;5053601;28;19915;-50
2022/06/19 15:50:53;;;;;;;;;;;30.70;62.40;;;;;;5055236;28;19966;-49
2022/06/19 15:53:46;;;;;;;;;;;30.70;62.80;;;;;;5054136;28;20009;-49
2022/06/19 15:56:47;;;;;;;;;;;30.70;62.80;;;;;;5054311;28;19997;-54
2022/06/19 15:59:33;;;;;;;;;;;30.40;63.50;;;;;;5054096;28;19987;-48
2022/06/19 16:02:23;;;;;;;;;;;30.20;64.00;;;;;;5052580;28;20044;-49
2022/06/19 16:05:08;;;;;;;;;;;29.90;64.20;;;;;;5034504;28;20004;-50
2022/06/19 16:07:56;;;;;;;;;;;29.80;64.40;;;;;;5053518;28;20382;-53
2022/06/19 16:10:45;;;;;;;;;;;29.70;65.10;;;;;;5053967;28;19931;-50
2022/06/19 16:13:31;;;;;;;;;;;29.40;65.50;;;;;;5054382;28;20043;-55
2022/06/19 16:16:19;;;;;;;;;;;29.30;65.70;;;;;;5033734;28;20013;-54
2022/06/19 16:19:06;;;;;;;;;;;29.10;65.50;;;;;;5037143;28;19960;-51
2022/06/19 16:21:56;;;;;;;;;;;29.10;65.30;;;;;;5053058;28;19931;-52
2022/06/19 16:24:55;;;;;;;;;;;29.40;65.20;;;;;;5054182;28;20011;-54
2022/06/19 16:27:43;;;;;;;;;;;29.40;65.40;;;;;;5052558;28;19915;-52
2022/06/19 16:30:30;;;;;;;;;;;29.40;65.40;;;;;;5033184;28;19915;-54
2022/06/19 16:33:18;;;;;;;;;;;29.40;65.70;;;;;;5037404;28;19919;-50